Time,TemperatureF,DewpointF,PressureIn,WindDirection,WindDirectionDegrees,WindSpeedMPH,WindSpeedGustMPH,Humidity,HourlyPrecipIn,Conditions,Clouds,dailyrainin,SoftwareType,DateUTC
2013-09-23 00:22:00,57.0,52.0,30.01,East,79,0.0,3.0,84,-99.99,,,-99.99,,2013-09-23 07:22:00,
2013-09-23 00:52:00,57.0,53.0,30.01,East,90,0.0,3.0,85,-99.99,,,-99.99,,2013-09-23 07:52:00,
2013-09-23 01:11:00,57.0,53.0,30.01,East,80,1.0,3.0,85,-99.99,,,-99.99,,2013-09-23 08:11:00,
2013-09-23 01:22:00,57.0,53.0,30.00,NE,55,3.0,3.0,86,-99.99,,,-99.99,,2013-09-23 08:22:00,
2013-09-23 01:52:00,57.0,53.0,30.00,East,79,0.0,2.0,85,-99.99,,,-99.99,,2013-09-23 08:52:00,
2013-09-23 02:02:00,57.0,53.0,30.00,East,79,0.0,2.0,85,-99.99,,,-99.99,,2013-09-23 09:02:00,
2013-09-23 02:11:00,57.0,53.0,30.00,East,79,0.0,2.0,85,-99.99,,,-99.99,,2013-09-23 09:11:00,
2013-09-23 02:21:00,57.0,53.0,30.00,East,79,0.0,2.0,85,-99.99,,,-99.99,,2013-09-23 09:21:00,
2013-09-23 02:53:00,56.0,51.0,30.00,West,261,0.0,1.0,83,-99.99,,,-99.99,,2013-09-23 09:53:00,
2013-09-23 03:23:00,55.0,50.0,29.99,West,261,0.0,3.0,84,-99.99,,,-99.99,,2013-09-23 10:23:00,
2013-09-23 03:52:00,55.0,51.0,29.98,NNE,27,2.0,2.0,85,-99.99,,,-99.99,,2013-09-23 10:52:00,
2013-09-23 04:21:00,56.0,52.0,29.98,NE,52,9.0,11.0,87,-99.99,,,-99.99,,2013-09-23 11:21:00,
2013-09-23 04:33:00,56.0,52.0,29.98,NE,52,9.0,11.0,87,-99.99,,,-99.99,,2013-09-23 11:33:00,
2013-09-23 04:52:00,56.0,52.0,29.98,NE,52,9.0,11.0,87,-99.99,,,-99.99,,2013-09-23 11:52:00,
2013-09-23 05:11:00,57.0,53.0,29.98,NNE,27,2.0,6.0,87,-99.99,,,-99.99,,2013-09-23 12:11:00,
2013-09-23 05:22:00,57.0,53.0,29.98,NNE,27,2.0,6.0,87,-99.99,,,-99.99,,2013-09-23 12:22:00,
2013-09-23 05:32:00,57.0,53.0,29.98,NNE,27,2.0,6.0,87,-99.99,,,-99.99,,2013-09-23 12:32:00,
2013-09-23 06:52:00,56.0,52.0,29.99,ENE,72,0.0,5.0,88,-99.99,,,-99.99,,2013-09-23 13:52:00,
2013-09-23 07:21:00,56.0,52.0,29.99,NNE,13,1.0,5.0,88,-99.99,,,-99.99,,2013-09-23 14:21:00,
2013-09-23 07:32:00,56.0,52.0,29.99,NNE,13,1.0,5.0,88,-99.99,,,-99.99,,2013-09-23 14:32:00,
2013-09-23 07:52:00,56.0,52.0,29.99,NNE,13,1.0,5.0,88,-99.99,,,-99.99,,2013-09-23 14:52:00,
2013-09-23 08:21:00,57.0,53.0,30.01,ENE,68,6.0,10.0,88,-99.99,,,-99.99,,2013-09-23 15:21:00,
2013-09-23 08:54:00,57.0,53.0,30.01,ESE,110,5.0,6.0,85,-99.99,,,-99.99,,2013-09-23 15:54:00,
2013-09-23 09:03:00,57.0,53.0,30.01,ESE,110,5.0,6.0,85,-99.99,,,-99.99,,2013-09-23 16:03:00,
2013-09-23 09:23:00,60.0,54.0,30.01,East,80,5.0,11.0,80,-99.99,,,-99.99,,2013-09-23 16:23:00,
2013-09-23 09:53:00,64.0,55.0,30.01,ENE,71,6.0,7.0,73,-99.99,,,-99.99,,2013-09-23 16:53:00,
2013-09-23 10:12:00,65.0,55.0,30.01,NE,45,5.0,7.0,69,-99.99,,,-99.99,,2013-09-23 17:12:00,
2013-09-23 10:24:00,65.0,55.0,30.01,NE,45,5.0,7.0,69,-99.99,,,-99.99,,2013-09-23 17:24:00,
2013-09-23 10:52:00,69.0,55.0,30.01,NNE,21,0.0,6.0,62,-99.99,,,-99.99,,2013-09-23 17:52:00,
2013-09-23 11:12:00,71.0,54.0,30.00,NNE,32,1.0,7.0,56,-99.99,,,-99.99,,2013-09-23 18:12:00,
2013-09-23 11:21:00,72.0,54.0,30.00,NE,34,6.0,9.0,54,-99.99,,,-99.99,,2013-09-23 18:21:00,
2013-09-23 11:52:00,73.0,54.0,30.00,NE,45,6.0,8.0,51,-99.99,,,-99.99,,2013-09-23 18:52:00,
2013-09-23 12:12:00,76.0,54.0,29.99,North,8,3.0,8.0,46,-99.99,,,-99.99,,2013-09-23 19:12:00,
2013-09-23 12:22:00,76.0,54.0,29.99,North,8,3.0,8.0,46,-99.99,,,-99.99,,2013-09-23 19:22:00,
2013-09-23 12:53:00,79.0,54.0,29.98,ESE,119,1.0,7.0,42,-99.99,,,-99.99,,2013-09-23 19:53:00,
2013-09-23 13:12:00,81.0,54.0,29.97,East,97,1.0,6.0,39,-99.99,,,-99.99,,2013-09-23 20:12:00,
2013-09-23 14:23:00,80.0,54.0,29.95,West,271,3.0,7.0,41,-99.99,,,-99.99,,2013-09-23 21:23:00,
2013-09-23 14:54:00,82.0,54.0,29.94,SSW,203,2.0,8.0,38,-99.99,,,-99.99,,2013-09-23 21:54:00,
2013-09-23 15:23:00,85.0,54.0,29.93,West,263,1.0,6.0,35,-99.99,,,-99.99,,2013-09-23 22:23:00,
2013-09-23 15:54:00,85.0,54.0,29.93,WSW,239,0.0,5.0,35,-99.99,,,-99.99,,2013-09-23 22:54:00,
2013-09-23 16:22:00,83.0,55.0,29.92,SW,226,11.0,13.0,38,-99.99,,,-99.99,,2013-09-23 23:22:00,
2013-09-23 16:53:00,80.0,56.0,29.92,SW,227,6.0,11.0,44,-99.99,,,-99.99,,2013-09-23 23:53:00,
2013-09-23 17:22:00,80.0,57.0,29.92,SW,224,3.0,7.0,46,-99.99,,,-99.99,,2013-09-24 00:22:00,
2013-09-23 17:42:00,80.0,56.0,29.92,WSW,251,5.0,8.0,44,-99.99,,,-99.99,,2013-09-24 00:42:00,
2013-09-23 17:52:00,80.0,56.0,29.92,WSW,251,5.0,8.0,44,-99.99,,,-99.99,,2013-09-24 00:52:00,
2013-09-23 18:12:00,80.0,55.0,29.92,NW,304,0.0,8.0,42,-99.99,,,-99.99,,2013-09-24 01:12:00,
2013-09-23 18:21:00,80.0,55.0,29.92,NW,304,0.0,8.0,42,-99.99,,,-99.99,,2013-09-24 01:21:00,
2013-09-23 18:43:00,80.0,55.0,29.92,SW,234,0.0,3.0,42,-99.99,,,-99.99,,2013-09-24 01:43:00,
2013-09-23 18:52:00,80.0,55.0,29.92,SW,234,0.0,3.0,42,-99.99,,,-99.99,,2013-09-24 01:52:00,
2013-09-23 19:12:00,79.0,56.0,29.92,SW,223,0.0,4.0,46,-99.99,,,-99.99,,2013-09-24 02:12:00,
2013-09-23 19:22:00,79.0,56.0,29.92,SW,223,0.0,4.0,46,-99.99,,,-99.99,,2013-09-24 02:22:00,
2013-09-23 19:32:00,79.0,56.0,29.92,SW,223,0.0,4.0,46,-99.99,,,-99.99,,2013-09-24 02:32:00,
2013-09-23 19:42:00,79.0,56.0,29.92,SW,223,0.0,4.0,46,-99.99,,,-99.99,,2013-09-24 02:42:00,
2013-09-23 19:52:00,72.0,58.0,29.93,East,95,2.0,6.0,62,-99.99,,,-99.99,,2013-09-24 02:52:00,
2013-09-23 20:02:00,72.0,58.0,29.93,East,95,2.0,6.0,62,-99.99,,,-99.99,,2013-09-24 03:02:00,
2013-09-23 20:12:00,72.0,58.0,29.93,East,95,2.0,6.0,62,-99.99,,,-99.99,,2013-09-24 03:12:00,
2013-09-23 20:21:00,72.0,58.0,29.93,East,95,2.0,6.0,62,-99.99,,,-99.99,,2013-09-24 03:21:00,
2013-09-23 20:54:00,68.0,58.0,29.95,East,83,0.0,6.0,71,-99.99,,,-99.99,,2013-09-24 03:54:00,
2013-09-23 21:14:00,66.0,58.0,29.96,ENE,58,1.0,2.0,76,-99.99,,,-99.99,,2013-09-24 04:14:00,
2013-09-23 21:24:00,65.0,58.0,29.96,ENE,58,0.0,1.0,77,-99.99,,,-99.99,,2013-09-24 04:24:00,
2013-09-23 21:54:00,65.0,58.0,29.97,ENE,58,0.0,2.0,78,-99.99,,,-99.99,,2013-09-24 04:54:00,
2013-09-23 22:13:00,64.0,57.0,29.97,ENE,58,0.0,2.0,79,-99.99,,,-99.99,,2013-09-24 05:13:00,
2013-09-23 22:22:00,64.0,57.0,29.97,ENE,58,0.0,2.0,79,-99.99,,,-99.99,,2013-09-24 05:22:00,
2013-09-23 22:34:00,64.0,57.0,29.97,ENE,58,0.0,2.0,79,-99.99,,,-99.99,,2013-09-24 05:34:00,
2013-09-23 22:53:00,63.0,57.0,29.97,ENE,58,0.0,0.0,80,-99.99,,,-99.99,,2013-09-24 05:53:00,
2013-09-23 23:12:00,63.0,57.0,29.97,ENE,58,0.0,0.0,81,-99.99,,,-99.99,,2013-09-24 06:12:00,
2013-09-23 23:22:00,63.0,57.0,29.97,ENE,58,0.0,0.0,81,-99.99,,,-99.99,,2013-09-24 06:22:00,
2013-09-23 23:32:00,63.0,57.0,29.97,ENE,58,0.0,0.0,81,-99.99,,,-99.99,,2013-09-24 06:32:00,
2013-09-23 23:52:00,63.0,57.0,29.97,ENE,58,0.0,0.0,81,-99.99,,,-99.99,,2013-09-24 06:52:00,